sensor_id;sensor_type;location;lat;lon;timestamp;pressure;altitude;pressure_sealevel;temperature;humidity
21555;BME280;10938;44.794;-0.676;2022-09-09T00:02:20;101116.19;;;25.33;42.99
21555;BME280;10938;44.794;-0.676;2022-09-09T00:05:12;101118.50;;;25.21;43.83
21555;BME280;10938;44.794;-0.676;2022-09-09T00:07:47;101125.94;;;24.91;44.19
21555;BME280;10938;44.794;-0.676;2022-09-09T00:10:22;101125.25;;;25.29;43.30
21555;BME280;10938;44.794;-0.676;2022-09-09T00:16:19;101135.91;;;25.73;42.92
21555;BME280;10938;44.794;-0.676;2022-09-09T00:19:00;101134.38;;;25.24;44.08
21555;BME280;10938;44.794;-0.676;2022-09-09T00:21:43;101136.94;;;25.27;43.18
21555;BME280;10938;44.794;-0.676;2022-09-09T00:24:32;101139.25;;;25.57;42.41
21555;BME280;10938;44.794;-0.676;2022-09-09T00:27:29;101129.75;;;26.11;40.79
21555;BME280;10938;44.794;-0.676;2022-09-09T00:30:13;101116.31;;;25.52;42.49
21555;BME280;10938;44.794;-0.676;2022-09-09T00:32:40;101114.00;;;25.85;41.31
21555;BME280;10938;44.794;-0.676;2022-09-09T00:35:14;101118.94;;;25.53;42.19
21555;BME280;10938;44.794;-0.676;2022-09-09T00:37:44;101111.84;;;25.52;42.04
21555;BME280;10938;44.794;-0.676;2022-09-09T00:42:54;101117.41;;;24.81;43.89
21555;BME280;10938;44.794;-0.676;2022-09-09T00:48:54;101119.09;;;24.14;44.88
21555;BME280;10938;44.794;-0.676;2022-09-09T00:56:38;101103.22;;;25.24;43.11
21555;BME280;10938;44.794;-0.676;2022-09-09T01:01:36;101109.06;;;25.76;41.67
21555;BME280;10938;44.794;-0.676;2022-09-09T01:04:05;101104.84;;;25.90;41.07
21555;BME280;10938;44.794;-0.676;2022-09-09T01:06:36;101094.44;;;26.25;40.98
21555;BME280;10938;44.794;-0.676;2022-09-09T01:09:22;101099.56;;;25.89;41.98
21555;BME280;10938;44.794;-0.676;2022-09-09T01:12:02;101100.16;;;25.95;41.21
21555;BME280;10938;44.794;-0.676;2022-09-09T01:17:23;101101.13;;;23.70;46.43
21555;BME280;10938;44.794;-0.676;2022-09-09T01:20:04;101101.34;;;24.83;43.57
21555;BME280;10938;44.794;-0.676;2022-09-09T01:22:44;101105.53;;;24.43;44.59
21555;BME280;10938;44.794;-0.676;2022-09-09T01:25:56;101102.06;;;26.32;40.17
21555;BME280;10938;44.794;-0.676;2022-09-09T01:28:25;101099.97;;;26.20;40.55
21555;BME280;10938;44.794;-0.676;2022-09-09T01:30:53;101100.28;;;26.33;40.13
21555;BME280;10938;44.794;-0.676;2022-09-09T01:33:20;101101.56;;;26.24;40.40
21555;BME280;10938;44.794;-0.676;2022-09-09T01:38:11;101103.91;;;26.69;39.59
21555;BME280;10938;44.794;-0.676;2022-09-09T01:40:37;101107.59;;;26.67;38.93
21555;BME280;10938;44.794;-0.676;2022-09-09T01:43:03;101103.31;;;26.62;38.99
21555;BME280;10938;44.794;-0.676;2022-09-09T01:45:30;101103.63;;;26.38;40.05
21555;BME280;10938;44.794;-0.676;2022-09-09T01:47:56;101109.44;;;26.27;39.60
21555;BME280;10938;44.794;-0.676;2022-09-09T01:50:22;101103.56;;;26.19;40.01
21555;BME280;10938;44.794;-0.676;2022-09-09T01:52:54;101103.97;;;26.30;40.22
21555;BME280;10938;44.794;-0.676;2022-09-09T01:55:29;101105.66;;;26.70;39.16
21555;BME280;10938;44.794;-0.676;2022-09-09T02:00:37;101098.56;;;26.50;39.37
21555;BME280;10938;44.794;-0.676;2022-09-09T02:03:16;101101.16;;;26.13;39.61
21555;BME280;10938;44.794;-0.676;2022-09-09T02:05:52;101100.50;;;26.08;39.61
21555;BME280;10938;44.794;-0.676;2022-09-09T02:08:24;101096.66;;;26.52;38.70
21555;BME280;10938;44.794;-0.676;2022-09-09T02:11:19;101108.44;;;25.69;39.78
21555;BME280;10938;44.794;-0.676;2022-09-09T02:13:48;101106.91;;;25.22;41.39
21555;BME280;10938;44.794;-0.676;2022-09-09T02:16:28;101096.44;;;25.37;40.70
21555;BME280;10938;44.794;-0.676;2022-09-09T02:21:34;101091.03;;;26.21;39.20
21555;BME280;10938;44.794;-0.676;2022-09-09T02:24:03;101090.59;;;26.30;39.29
21555;BME280;10938;44.794;-0.676;2022-09-09T02:26:31;101093.66;;;26.41;38.41
21555;BME280;10938;44.794;-0.676;2022-09-09T02:29:02;101097.72;;;25.91;39.29
21555;BME280;10938;44.794;-0.676;2022-09-09T02:31:30;101094.63;;;25.80;39.99
21555;BME280;10938;44.794;-0.676;2022-09-09T02:34:00;101095.59;;;25.58;40.25
21555;BME280;10938;44.794;-0.676;2022-09-09T02:36:29;101099.63;;;26.07;39.50
21555;BME280;10938;44.794;-0.676;2022-09-09T02:38:58;101100.94;;;24.70;41.45
21555;BME280;10938;44.794;-0.676;2022-09-09T02:41:36;101101.41;;;25.46;40.78
21555;BME280;10938;44.794;-0.676;2022-09-09T02:44:08;101099.09;;;25.59;40.95
21555;BME280;10938;44.794;-0.676;2022-09-09T02:49:48;101107.91;;;24.03;44.23
21555;BME280;10938;44.794;-0.676;2022-09-09T02:52:20;101106.13;;;25.62;41.75
21555;BME280;10938;44.794;-0.676;2022-09-09T02:54:52;101103.69;;;26.16;40.70
21555;BME280;10938;44.794;-0.676;2022-09-09T02:57:25;101107.38;;;26.52;39.78
21555;BME280;10938;44.794;-0.676;2022-09-09T02:59:53;101108.53;;;26.66;40.05
21555;BME280;10938;44.794;-0.676;2022-09-09T03:02:18;101103.38;;;26.81;39.25
21555;BME280;10938;44.794;-0.676;2022-09-09T03:04:44;101103.06;;;26.87;39.54
21555;BME280;10938;44.794;-0.676;2022-09-09T03:07:10;101106.00;;;27.19;38.96
21555;BME280;10938;44.794;-0.676;2022-09-09T03:09:36;101108.16;;;27.46;38.82
21555;BME280;10938;44.794;-0.676;2022-09-09T03:12:02;101107.41;;;27.44;38.49
21555;BME280;10938;44.794;-0.676;2022-09-09T03:14:29;101106.53;;;26.52;40.16
21555;BME280;10938;44.794;-0.676;2022-09-09T03:16:56;101102.53;;;27.34;38.56
21555;BME280;10938;44.794;-0.676;2022-09-09T03:19:23;101110.69;;;27.49;38.43
21555;BME280;10938;44.794;-0.676;2022-09-09T03:21:48;101108.84;;;26.97;39.18
21555;BME280;10938;44.794;-0.676;2022-09-09T03:24:14;101112.91;;;27.76;38.09
21555;BME280;10938;44.794;-0.676;2022-09-09T03:26:41;101115.44;;;27.61;38.08
21555;BME280;10938;44.794;-0.676;2022-09-09T03:29:07;101108.25;;;26.53;40.25
21555;BME280;10938;44.794;-0.676;2022-09-09T03:31:33;101105.91;;;26.84;39.41
21555;BME280;10938;44.794;-0.676;2022-09-09T03:34:01;101109.50;;;27.02;40.04
21555;BME280;10938;44.794;-0.676;2022-09-09T03:36:27;101105.72;;;27.42;39.65
21555;BME280;10938;44.794;-0.676;2022-09-09T03:38:53;101118.03;;;27.63;38.52
21555;BME280;10938;44.794;-0.676;2022-09-09T03:41:20;101114.63;;;27.94;38.54
21555;BME280;10938;44.794;-0.676;2022-09-09T03:43:47;101124.44;;;27.06;39.65
21555;BME280;10938;44.794;-0.676;2022-09-09T03:46:12;101115.94;;;24.96;44.06
21555;BME280;10938;44.794;-0.676;2022-09-09T03:48:38;101121.16;;;24.99;44.47
21555;BME280;10938;44.794;-0.676;2022-09-09T03:51:03;101116.00;;;26.96;40.14
21555;BME280;10938;44.794;-0.676;2022-09-09T03:53:29;101120.53;;;27.49;38.92
21555;BME280;10938;44.794;-0.676;2022-09-09T03:55:56;101114.44;;;27.28;38.73
21555;BME280;10938;44.794;-0.676;2022-09-09T03:58:25;101111.56;;;28.01;37.34
21555;BME280;10938;44.794;-0.676;2022-09-09T04:01:05;101105.91;;;26.84;39.34
21555;BME280;10938;44.794;-0.676;2022-09-09T04:03:31;101101.59;;;27.35;38.88
21555;BME280;10938;44.794;-0.676;2022-09-09T04:05:58;101107.03;;;27.33;38.38
21555;BME280;10938;44.794;-0.676;2022-09-09T04:08:25;101108.97;;;26.56;40.29
21555;BME280;10938;44.794;-0.676;2022-09-09T04:10:51;101111.41;;;26.24;40.99
21555;BME280;10938;44.794;-0.676;2022-09-09T04:13:18;101115.63;;;26.67;39.86
21555;BME280;10938;44.794;-0.676;2022-09-09T04:15:53;101118.06;;;26.34;39.87
21555;BME280;10938;44.794;-0.676;2022-09-09T04:18:19;101122.78;;;25.03;42.42
21555;BME280;10938;44.794;-0.676;2022-09-09T04:20:49;101117.47;;;24.33;44.71
21555;BME280;10938;44.794;-0.676;2022-09-09T04:23:15;101121.69;;;25.08;42.62
21555;BME280;10938;44.794;-0.676;2022-09-09T04:25:48;101123.16;;;25.37;42.50
21555;BME280;10938;44.794;-0.676;2022-09-09T04:28:15;101124.41;;;26.11;40.40
21555;BME280;10938;44.794;-0.676;2022-09-09T04:30:42;101120.22;;;25.85;40.97
21555;BME280;10938;44.794;-0.676;2022-09-09T04:33:09;101130.19;;;25.82;41.17
21555;BME280;10938;44.794;-0.676;2022-09-09T04:35:35;101121.81;;;25.89;40.51
21555;BME280;10938;44.794;-0.676;2022-09-09T04:38:01;101128.88;;;25.28;41.47
21555;BME280;10938;44.794;-0.676;2022-09-09T04:40:31;101120.38;;;24.74;43.08
21555;BME280;10938;44.794;-0.676;2022-09-09T04:43:01;101132.44;;;25.49;41.40
21555;BME280;10938;44.794;-0.676;2022-09-09T04:45:28;101126.69;;;25.59;40.98
21555;BME280;10938;44.794;-0.676;2022-09-09T04:47:54;101132.06;;;25.36;41.00
21555;BME280;10938;44.794;-0.676;2022-09-09T04:50:20;101135.81;;;25.54;41.25
21555;BME280;10938;44.794;-0.676;2022-09-09T04:52:46;101135.75;;;25.55;40.61
21555;BME280;10938;44.794;-0.676;2022-09-09T04:55:11;101137.09;;;25.86;40.14
21555;BME280;10938;44.794;-0.676;2022-09-09T04:57:38;101138.19;;;25.62;40.34
21555;BME280;10938;44.794;-0.676;2022-09-09T05:00:04;101142.19;;;25.72;39.98
21555;BME280;10938;44.794;-0.676;2022-09-09T05:02:30;101139.03;;;25.62;40.29
21555;BME280;10938;44.794;-0.676;2022-09-09T05:04:55;101145.31;;;25.61;40.17
21555;BME280;10938;44.794;-0.676;2022-09-09T05:07:21;101140.88;;;25.82;39.62
21555;BME280;10938;44.794;-0.676;2022-09-09T05:09:46;101138.78;;;26.29;38.88
21555;BME280;10938;44.794;-0.676;2022-09-09T05:12:15;101136.59;;;27.13;37.15
21555;BME280;10938;44.794;-0.676;2022-09-09T05:14:42;101136.63;;;24.91;41.49
21555;BME280;10938;44.794;-0.676;2022-09-09T05:17:08;101135.84;;;24.64;42.12
21555;BME280;10938;44.794;-0.676;2022-09-09T05:19:33;101132.31;;;23.66;44.47
21555;BME280;10938;44.794;-0.676;2022-09-09T05:22:01;101139.06;;;23.76;44.60
21555;BME280;10938;44.794;-0.676;2022-09-09T05:24:27;101150.50;;;24.29;42.87
21555;BME280;10938;44.794;-0.676;2022-09-09T05:26:52;101138.34;;;23.96;43.72
21555;BME280;10938;44.794;-0.676;2022-09-09T05:29:18;101147.72;;;23.56;45.48
21555;BME280;10938;44.794;-0.676;2022-09-09T05:31:46;101154.63;;;24.13;43.83
21555;BME280;10938;44.794;-0.676;2022-09-09T05:34:12;101149.59;;;23.79;44.78
21555;BME280;10938;44.794;-0.676;2022-09-09T05:36:37;101152.59;;;24.21;43.97
21555;BME280;10938;44.794;-0.676;2022-09-09T05:39:03;101151.25;;;24.08;44.44
21555;BME280;10938;44.794;-0.676;2022-09-09T05:41:29;101151.44;;;24.02;44.81
21555;BME280;10938;44.794;-0.676;2022-09-09T05:43:55;101157.06;;;24.67;43.31
21555;BME280;10938;44.794;-0.676;2022-09-09T05:46:23;101158.28;;;25.70;40.22
21555;BME280;10938;44.794;-0.676;2022-09-09T05:48:50;101160.66;;;25.56;41.66
21555;BME280;10938;44.794;-0.676;2022-09-09T05:51:22;101155.31;;;25.56;41.67
21555;BME280;10938;44.794;-0.676;2022-09-09T05:53:49;101157.38;;;25.91;40.87
21555;BME280;10938;44.794;-0.676;2022-09-09T05:56:20;101151.31;;;26.28;39.48
21555;BME280;10938;44.794;-0.676;2022-09-09T05:58:47;101144.81;;;26.52;39.41
21555;BME280;10938;44.794;-0.676;2022-09-09T06:01:15;101144.41;;;26.80;39.10
21555;BME280;10938;44.794;-0.676;2022-09-09T06:03:42;101153.06;;;29.55;34.81
21555;BME280;10938;44.794;-0.676;2022-09-09T06:06:10;101152.50;;;32.14;31.56
21555;BME280;10938;44.794;-0.676;2022-09-09T06:08:38;101165.84;;;34.79;28.52
21555;BME280;10938;44.794;-0.676;2022-09-09T06:11:07;101159.28;;;36.10;26.44
21555;BME280;10938;44.794;-0.676;2022-09-09T06:13:33;101175.06;;;37.66;22.97
21555;BME280;10938;44.794;-0.676;2022-09-09T06:15:58;101166.03;;;39.42;22.77
21555;BME280;10938;44.794;-0.676;2022-09-09T06:18:25;101171.00;;;41.02;20.59
21555;BME280;10938;44.794;-0.676;2022-09-09T06:21:02;101180.94;;;41.11;19.48
21555;BME280;10938;44.794;-0.676;2022-09-09T06:23:32;101177.50;;;42.87;18.76
21555;BME280;10938;44.794;-0.676;2022-09-09T06:28:31;101192.81;;;45.22;16.60
21555;BME280;10938;44.794;-0.676;2022-09-09T06:31:09;101196.16;;;46.45;13.61
21555;BME280;10938;44.794;-0.676;2022-09-09T06:33:37;101199.06;;;47.86;14.51
21555;BME280;10938;44.794;-0.676;2022-09-09T06:36:05;101202.09;;;48.11;14.23
21555;BME280;10938;44.794;-0.676;2022-09-09T06:38:38;101198.66;;;48.02;13.11
21555;BME280;10938;44.794;-0.676;2022-09-09T06:41:04;101205.56;;;48.90;13.61
21555;BME280;10938;44.794;-0.676;2022-09-09T06:43:31;101194.44;;;50.53;12.38
21555;BME280;10938;44.794;-0.676;2022-09-09T06:45:59;101204.84;;;51.30;11.73
21555;BME280;10938;44.794;-0.676;2022-09-09T06:48:25;101212.59;;;50.92;11.47
21555;BME280;10938;44.794;-0.676;2022-09-09T06:53:31;101215.13;;;53.51;10.01
21555;BME280;10938;44.794;-0.676;2022-09-09T06:56:17;101217.72;;;53.69;8.93
21555;BME280;10938;44.794;-0.676;2022-09-09T06:58:43;101215.09;;;52.82;9.54
21555;BME280;10938;44.794;-0.676;2022-09-09T07:01:12;101213.38;;;52.93;9.04
21555;BME280;10938;44.794;-0.676;2022-09-09T07:03:45;101208.59;;;52.77;9.09
21555;BME280;10938;44.794;-0.676;2022-09-09T07:06:15;101211.97;;;53.75;9.14
21555;BME280;10938;44.794;-0.676;2022-09-09T07:08:42;101230.59;;;54.36;8.71
21555;BME280;10938;44.794;-0.676;2022-09-09T07:11:11;101219.91;;;54.50;8.36
21555;BME280;10938;44.794;-0.676;2022-09-09T07:13:37;101227.06;;;54.24;8.44
21555;BME280;10938;44.794;-0.676;2022-09-09T07:16:06;101224.66;;;54.88;7.93
21555;BME280;10938;44.794;-0.676;2022-09-09T07:18:31;101233.00;;;56.12;7.78
21555;BME280;10938;44.794;-0.676;2022-09-09T07:20:58;101234.56;;;56.34;7.79
21555;BME280;10938;44.794;-0.676;2022-09-09T07:23:24;101240.63;;;56.58;7.64
21555;BME280;10938;44.794;-0.676;2022-09-09T07:25:50;101238.84;;;56.99;7.67
21555;BME280;10938;44.794;-0.676;2022-09-09T07:28:17;101225.06;;;56.41;7.52
21555;BME280;10938;44.794;-0.676;2022-09-09T07:30:42;101241.34;;;58.08;6.43
21555;BME280;10938;44.794;-0.676;2022-09-09T07:33:08;101232.75;;;57.12;6.61
21555;BME280;10938;44.794;-0.676;2022-09-09T07:35:35;101233.97;;;57.37;6.78
21555;BME280;10938;44.794;-0.676;2022-09-09T07:38:02;101231.22;;;57.87;6.49
21555;BME280;10938;44.794;-0.676;2022-09-09T07:40:29;101228.53;;;54.65;8.42
21555;BME280;10938;44.794;-0.676;2022-09-09T07:42:55;101207.97;;;48.80;11.45
21555;BME280;10938;44.794;-0.676;2022-09-09T07:45:21;101192.50;;;43.38;15.78
21555;BME280;10938;44.794;-0.676;2022-09-09T07:47:46;101195.63;;;40.69;18.53
21555;BME280;10938;44.794;-0.676;2022-09-09T07:50:13;101195.59;;;44.12;16.75
21555;BME280;10938;44.794;-0.676;2022-09-09T07:52:38;101217.41;;;49.55;12.92
21555;BME280;10938;44.794;-0.676;2022-09-09T07:55:04;101221.00;;;49.30;12.05
21555;BME280;10938;44.794;-0.676;2022-09-09T07:57:29;101213.75;;;45.02;14.55
21555;BME280;10938;44.794;-0.676;2022-09-09T07:59:56;101205.81;;;40.33;18.59
21555;BME280;10938;44.794;-0.676;2022-09-09T08:02:23;101202.19;;;38.99;20.20
21555;BME280;10938;44.794;-0.676;2022-09-09T08:04:48;101207.16;;;41.22;19.03
21555;BME280;10938;44.794;-0.676;2022-09-09T08:07:14;101211.84;;;47.13;13.76
21555;BME280;10938;44.794;-0.676;2022-09-09T08:09:39;101227.88;;;51.79;10.58
21555;BME280;10938;44.794;-0.676;2022-09-09T08:12:05;101229.94;;;53.96;8.82
21555;BME280;10938;44.794;-0.676;2022-09-09T08:14:33;101240.19;;;55.76;8.37
21555;BME280;10938;44.794;-0.676;2022-09-09T08:16:58;101233.06;;;56.22;7.34
21555;BME280;10938;44.794;-0.676;2022-09-09T08:19:25;101240.06;;;57.23;7.38
21555;BME280;10938;44.794;-0.676;2022-09-09T08:21:51;101242.00;;;57.08;7.20
21555;BME280;10938;44.794;-0.676;2022-09-09T08:24:17;101254.72;;;57.46;7.08
21555;BME280;10938;44.794;-0.676;2022-09-09T08:26:46;101253.13;;;57.85;6.72
21555;BME280;10938;44.794;-0.676;2022-09-09T08:29:16;101248.53;;;57.33;6.75
21555;BME280;10938;44.794;-0.676;2022-09-09T08:31:47;101227.28;;;51.88;9.68
21555;BME280;10938;44.794;-0.676;2022-09-09T08:34:13;101208.22;;;47.80;11.96
21555;BME280;10938;44.794;-0.676;2022-09-09T08:36:41;101212.41;;;45.48;14.21
21555;BME280;10938;44.794;-0.676;2022-09-09T08:39:08;101219.47;;;44.11;15.52
21555;BME280;10938;44.794;-0.676;2022-09-09T08:44:16;101221.03;;;39.20;20.56
21555;BME280;10938;44.794;-0.676;2022-09-09T08:55:05;101224.13;;;37.45;22.42
21555;BME280;10938;44.794;-0.676;2022-09-09T08:57:38;101225.97;;;38.70;21.22
21555;BME280;10938;44.794;-0.676;2022-09-09T09:00:04;101230.53;;;39.16;20.55
21555;BME280;10938;44.794;-0.676;2022-09-09T09:05:18;101239.09;;;39.21;19.96
21555;BME280;10938;44.794;-0.676;2022-09-09T09:10:43;101234.13;;;38.79;20.25
21555;BME280;10938;44.794;-0.676;2022-09-09T09:13:15;101233.38;;;38.40;21.34
21555;BME280;10938;44.794;-0.676;2022-09-09T09:15:41;101242.66;;;37.80;22.23
21555;BME280;10938;44.794;-0.676;2022-09-09T09:18:12;101243.44;;;36.93;22.32
21555;BME280;10938;44.794;-0.676;2022-09-09T09:23:25;101252.84;;;35.74;24.19
21555;BME280;10938;44.794;-0.676;2022-09-09T09:25:56;101263.47;;;36.50;23.77
21555;BME280;10938;44.794;-0.676;2022-09-09T09:28:26;101264.13;;;37.05;22.33
21555;BME280;10938;44.794;-0.676;2022-09-09T09:31:06;101268.91;;;37.91;21.28
21555;BME280;10938;44.794;-0.676;2022-09-09T09:33:52;101271.59;;;37.12;21.31
21555;BME280;10938;44.794;-0.676;2022-09-09T09:36:33;101270.22;;;37.37;21.26
21555;BME280;10938;44.794;-0.676;2022-09-09T09:38:59;101263.94;;;38.90;19.80
21555;BME280;10938;44.794;-0.676;2022-09-09T09:41:41;101263.22;;;38.23;20.42
21555;BME280;10938;44.794;-0.676;2022-09-09T09:44:28;101281.84;;;37.39;22.59
21555;BME280;10938;44.794;-0.676;2022-09-09T09:47:15;101288.47;;;36.44;23.39
21555;BME280;10938;44.794;-0.676;2022-09-09T09:49:55;101275.72;;;37.07;22.92
21555;BME280;10938;44.794;-0.676;2022-09-09T09:52:31;101285.53;;;37.88;22.13
21555;BME280;10938;44.794;-0.676;2022-09-09T09:54:58;101288.16;;;38.37;21.83
21555;BME280;10938;44.794;-0.676;2022-09-09T09:57:29;101288.97;;;38.76;21.41
21555;BME280;10938;44.794;-0.676;2022-09-09T10:00:19;101284.59;;;39.57;20.89
21555;BME280;10938;44.794;-0.676;2022-09-09T10:02:46;101291.47;;;40.06;20.71
21555;BME280;10938;44.794;-0.676;2022-09-09T10:05:20;101300.31;;;40.00;20.09
21555;BME280;10938;44.794;-0.676;2022-09-09T10:07:57;101307.63;;;39.99;20.39
21555;BME280;10938;44.794;-0.676;2022-09-09T10:10:34;101305.59;;;37.37;22.35
21555;BME280;10938;44.794;-0.676;2022-09-09T10:18:36;101313.50;;;36.27;25.08
21555;BME280;10938;44.794;-0.676;2022-09-09T10:21:19;101316.00;;;37.53;23.67
21555;BME280;10938;44.794;-0.676;2022-09-09T10:26:32;101313.06;;;39.54;21.36
21555;BME280;10938;44.794;-0.676;2022-09-09T10:32:10;101309.41;;;39.09;21.51
21555;BME280;10938;44.794;-0.676;2022-09-09T10:34:56;101307.16;;;39.32;21.51
21555;BME280;10938;44.794;-0.676;2022-09-09T10:40:36;101310.06;;;38.84;21.67
21555;BME280;10938;44.794;-0.676;2022-09-09T10:46:02;101304.69;;;37.57;22.66
21555;BME280;10938;44.794;-0.676;2022-09-09T10:56:39;101289.16;;;35.62;26.10
21555;BME280;10938;44.794;-0.676;2022-09-09T10:59:13;101299.16;;;34.49;26.89
21555;BME280;10938;44.794;-0.676;2022-09-09T11:01:55;101302.31;;;34.32;27.62
21555;BME280;10938;44.794;-0.676;2022-09-09T11:04:27;101290.50;;;35.01;26.75
21555;BME280;10938;44.794;-0.676;2022-09-09T11:06:58;101284.97;;;35.36;26.76
21555;BME280;10938;44.794;-0.676;2022-09-09T11:09:28;101287.16;;;35.53;25.25
21555;BME280;10938;44.794;-0.676;2022-09-09T11:11:58;101290.50;;;35.45;24.62
21555;BME280;10938;44.794;-0.676;2022-09-09T11:14:43;101297.91;;;36.82;23.43
21555;BME280;10938;44.794;-0.676;2022-09-09T11:17:16;101301.50;;;36.30;22.77
21555;BME280;10938;44.794;-0.676;2022-09-09T11:19:44;101304.66;;;35.82;22.74
21555;BME280;10938;44.794;-0.676;2022-09-09T11:30:22;101313.69;;;35.72;23.85
21555;BME280;10938;44.794;-0.676;2022-09-09T11:33:19;101318.50;;;36.63;22.00
21555;BME280;10938;44.794;-0.676;2022-09-09T11:38:51;101303.78;;;35.82;22.23
21555;BME280;10938;44.794;-0.676;2022-09-09T11:41:18;101302.56;;;35.75;22.90
21555;BME280;10938;44.794;-0.676;2022-09-09T11:43:48;101310.25;;;36.33;22.09
21555;BME280;10938;44.794;-0.676;2022-09-09T11:46:18;101306.06;;;35.32;23.34
21555;BME280;10938;44.794;-0.676;2022-09-09T11:49:00;101306.63;;;34.69;24.36
21555;BME280;10938;44.794;-0.676;2022-09-09T11:51:28;101321.34;;;34.30;24.34
21555;BME280;10938;44.794;-0.676;2022-09-09T11:53:58;101315.59;;;34.11;24.03
21555;BME280;10938;44.794;-0.676;2022-09-09T11:56:53;101310.88;;;34.02;25.57
21555;BME280;10938;44.794;-0.676;2022-09-09T11:59:30;101312.03;;;33.87;24.72
21555;BME280;10938;44.794;-0.676;2022-09-09T12:06:52;101321.78;;;36.46;22.21
21555;BME280;10938;44.794;-0.676;2022-09-09T12:09:27;101322.31;;;35.43;22.72
21555;BME280;10938;44.794;-0.676;2022-09-09T12:12:07;101316.78;;;37.04;21.33
21555;BME280;10938;44.794;-0.676;2022-09-09T12:19:39;101324.91;;;35.67;22.56
21555;BME280;10938;44.794;-0.676;2022-09-09T12:28:22;101339.16;;;32.21;31.40
21555;BME280;10938;44.794;-0.676;2022-09-09T12:31:12;101342.81;;;31.79;31.72
21555;BME280;10938;44.794;-0.676;2022-09-09T12:33:44;101337.97;;;32.12;30.31
21555;BME280;10938;44.794;-0.676;2022-09-09T12:36:23;101337.63;;;32.17;30.33
21555;BME280;10938;44.794;-0.676;2022-09-09T12:38:50;101337.69;;;33.20;28.33
21555;BME280;10938;44.794;-0.676;2022-09-09T12:41:22;101343.72;;;33.48;27.70
21555;BME280;10938;44.794;-0.676;2022-09-09T12:43:48;101335.50;;;33.86;27.19
21555;BME280;10938;44.794;-0.676;2022-09-09T12:46:36;101351.75;;;34.10;27.00
21555;BME280;10938;44.794;-0.676;2022-09-09T12:49:03;101350.34;;;34.87;25.40
21555;BME280;10938;44.794;-0.676;2022-09-09T12:51:31;101349.22;;;35.35;24.69
21555;BME280;10938;44.794;-0.676;2022-09-09T12:54:00;101342.91;;;36.75;23.38
21555;BME280;10938;44.794;-0.676;2022-09-09T12:56:28;101341.94;;;35.25;25.21
21555;BME280;10938;44.794;-0.676;2022-09-09T12:58:56;101342.28;;;35.53;24.69
21555;BME280;10938;44.794;-0.676;2022-09-09T13:01:24;101348.63;;;36.19;23.19
21555;BME280;10938;44.794;-0.676;2022-09-09T13:03:50;101349.94;;;37.49;21.39
21555;BME280;10938;44.794;-0.676;2022-09-09T13:06:27;101342.22;;;37.54;21.08
21555;BME280;10938;44.794;-0.676;2022-09-09T13:08:58;101342.84;;;36.65;22.45
21555;BME280;10938;44.794;-0.676;2022-09-09T13:11:46;101351.13;;;36.63;23.03
21555;BME280;10938;44.794;-0.676;2022-09-09T13:14:29;101350.53;;;36.60;22.72
21555;BME280;10938;44.794;-0.676;2022-09-09T13:17:00;101345.72;;;35.78;23.69
21555;BME280;10938;44.794;-0.676;2022-09-09T13:19:29;101351.69;;;35.60;23.57
21555;BME280;10938;44.794;-0.676;2022-09-09T13:21:57;101356.59;;;35.33;24.29
21555;BME280;10938;44.794;-0.676;2022-09-09T13:24:31;101350.13;;;35.90;23.66
21555;BME280;10938;44.794;-0.676;2022-09-09T13:27:50;101339.66;;;36.81;22.10
21555;BME280;10938;44.794;-0.676;2022-09-09T13:29:51;101343.03;;;36.52;22.54
21555;BME280;10938;44.794;-0.676;2022-09-09T13:32:21;101341.91;;;35.80;23.20
21555;BME280;10938;44.794;-0.676;2022-09-09T13:34:57;101340.84;;;35.49;23.71
21555;BME280;10938;44.794;-0.676;2022-09-09T13:37:23;101332.88;;;35.80;23.63
21555;BME280;10938;44.794;-0.676;2022-09-09T13:39:53;101336.16;;;35.62;23.04
21555;BME280;10938;44.794;-0.676;2022-09-09T13:42:31;101326.06;;;36.07;22.23
21555;BME280;10938;44.794;-0.676;2022-09-09T13:44:58;101331.75;;;36.36;21.89
21555;BME280;10938;44.794;-0.676;2022-09-09T13:47:35;101325.22;;;35.96;22.53
21555;BME280;10938;44.794;-0.676;2022-09-09T13:52:47;101328.72;;;35.20;22.59
21555;BME280;10938;44.794;-0.676;2022-09-09T13:55:14;101326.91;;;35.21;22.60
21555;BME280;10938;44.794;-0.676;2022-09-09T13:58:14;101324.53;;;35.05;22.68
21555;BME280;10938;44.794;-0.676;2022-09-09T14:00:35;101326.16;;;35.19;22.11
21555;BME280;10938;44.794;-0.676;2022-09-09T14:03:00;101321.00;;;35.16;22.36
21555;BME280;10938;44.794;-0.676;2022-09-09T14:05:32;101329.63;;;34.29;23.41
21555;BME280;10938;44.794;-0.676;2022-09-09T14:07:58;101324.72;;;33.25;23.81
21555;BME280;10938;44.794;-0.676;2022-09-09T14:10:25;101327.34;;;33.99;23.37
21555;BME280;10938;44.794;-0.676;2022-09-09T14:12:51;101333.13;;;34.88;21.51
21555;BME280;10938;44.794;-0.676;2022-09-09T14:15:16;101328.22;;;35.82;20.63
21555;BME280;10938;44.794;-0.676;2022-09-09T14:17:42;101327.59;;;36.53;19.81
21555;BME280;10938;44.794;-0.676;2022-09-09T14:20:08;101325.75;;;35.79;20.45
21555;BME280;10938;44.794;-0.676;2022-09-09T14:22:37;101331.31;;;36.20;20.49
21555;BME280;10938;44.794;-0.676;2022-09-09T14:25:04;101331.31;;;36.20;19.72
21555;BME280;10938;44.794;-0.676;2022-09-09T14:27:31;101332.03;;;35.57;20.22
21555;BME280;10938;44.794;-0.676;2022-09-09T14:29:59;101329.19;;;36.55;19.81
21555;BME280;10938;44.794;-0.676;2022-09-09T14:32:26;101328.66;;;36.09;19.97
21555;BME280;10938;44.794;-0.676;2022-09-09T14:34:52;101327.53;;;36.64;20.52
21555;BME280;10938;44.794;-0.676;2022-09-09T14:37:18;101323.13;;;37.14;19.68
21555;BME280;10938;44.794;-0.676;2022-09-09T14:39:43;101319.22;;;37.37;19.51
21555;BME280;10938;44.794;-0.676;2022-09-09T14:42:12;101313.19;;;37.43;19.38
21555;BME280;10938;44.794;-0.676;2022-09-09T14:44:38;101316.38;;;36.88;19.93
21555;BME280;10938;44.794;-0.676;2022-09-09T14:47:05;101319.00;;;37.20;20.04
21555;BME280;10938;44.794;-0.676;2022-09-09T14:49:30;101306.25;;;37.20;19.45